Time;durP1;ratioP1;P1;durP2;ratioP2;P2;SDS_P1;SDS_P2;PMS_P1;PMS_P2;Temp;Humidity;BMP_temperature;BMP_pressure;BME280_temperature;BME280_humidity;BME280_pressure;Samples;Min_cycle;Max_cycle;Signal;HPM_P1;HPM_P2
2023/12/17 00:00:56;;;;;;;5.27;3.50;;;0.80;99.90;;;;;;5077667;28;20592;-83
2023/12/17 00:03:25;;;;;;;5.83;4.20;;;1.00;99.90;;;;;;5079170;28;20192;-84
2023/12/17 00:05:52;;;;;;;5.47;3.83;;;1.00;99.90;;;;;;5084320;28;20212;-84
2023/12/17 00:08:20;;;;;;;4.20;3.70;;;0.90;99.90;;;;;;5078507;28;20201;-83
2023/12/17 00:10:48;;;;;;;6.13;3.63;;;0.90;99.90;;;;;;5077957;28;20719;-83
2023/12/17 00:13:15;;;;;;;5.07;3.37;;;0.90;99.90;;;;;;5083408;28;20220;-83
2023/12/17 00:15:42;;;;;;;5.80;3.80;;;1.00;99.90;;;;;;5084363;28;20228;-83
2023/12/17 00:18:09;;;;;;;8.63;3.57;;;0.90;99.90;;;;;;5076253;28;20663;-84
2023/12/17 00:20:36;;;;;;;4.50;3.60;;;0.90;99.90;;;;;;5075768;28;20783;-82
2023/12/17 00:23:04;;;;;;;4.57;3.50;;;0.90;99.90;;;;;;5080326;28;20189;-83
2023/12/17 00:25:31;;;;;;;4.90;3.50;;;0.80;99.90;;;;;;5080845;28;20203;-83
2023/12/17 00:27:59;;;;;;;6.53;3.50;;;0.80;99.90;;;;;;5083622;28;20863;-83
2023/12/17 00:30:26;;;;;;;5.40;3.63;;;0.90;99.90;;;;;;5082852;28;20197;-83
2023/12/17 00:32:53;;;;;;;4.13;3.43;;;0.90;99.90;;;;;;5080795;28;20194;-82
2023/12/17 00:35:20;;;;;;;4.20;3.37;;;0.80;99.90;;;;;;5082001;28;20196;-82
2023/12/17 00:37:47;;;;;;;4.80;3.37;;;0.80;99.90;;;;;;5087360;28;20203;-83
2023/12/17 00:40:14;;;;;;;7.07;3.67;;;0.70;99.90;;;;;;5076937;28;20193;-83
2023/12/17 00:42:41;;;;;;;4.47;3.13;;;0.80;99.90;;;;;;5077975;28;20197;-83
2023/12/17 00:45:10;;;;;;;3.27;2.97;;;0.80;99.90;;;;;;5077707;28;20205;-82
2023/12/17 00:47:37;;;;;;;5.77;3.70;;;0.80;99.90;;;;;;5075490;28;20193;-82
2023/12/17 00:50:04;;;;;;;5.10;3.40;;;0.70;99.90;;;;;;5082631;28;20236;-84
2023/12/17 00:52:31;;;;;;;4.27;3.40;;;0.60;99.90;;;;;;5080368;28;20211;-82
2023/12/17 00:54:57;;;;;;;4.07;3.10;;;0.70;99.90;;;;;;5080533;28;20225;-83
2023/12/17 00:57:24;;;;;;;4.43;3.43;;;0.90;99.90;;;;;;5083166;28;20199;-82
2023/12/17 00:59:51;;;;;;;5.17;3.37;;;1.00;99.90;;;;;;5083719;28;20204;-83
2023/12/17 01:02:19;;;;;;;4.53;3.50;;;0.90;99.90;;;;;;5082040;28;20697;-82
2023/12/17 01:04:46;;;;;;;4.83;3.37;;;0.90;99.90;;;;;;5084137;28;20218;-83
2023/12/17 01:07:13;;;;;;;4.47;3.27;;;0.90;99.90;;;;;;5077489;28;20220;-83
2023/12/17 01:09:40;;;;;;;5.17;3.53;;;1.00;99.90;;;;;;5084379;28;20197;-83
2023/12/17 01:12:07;;;;;;;3.83;2.83;;;1.00;99.90;;;;;;5080052;28;20640;-83
2023/12/17 01:14:34;;;;;;;4.77;3.10;;;0.90;99.90;;;;;;5080763;28;20223;-83
2023/12/17 01:17:01;;;;;;;4.40;3.30;;;0.80;99.90;;;;;;5082365;28;20576;-83
2023/12/17 01:19:29;;;;;;;6.33;3.60;;;0.80;99.90;;;;;;5082535;28;20196;-83
2023/12/17 01:21:57;;;;;;;4.27;3.47;;;0.70;99.90;;;;;;5079360;28;20225;-83
2023/12/17 01:24:24;;;;;;;5.13;4.07;;;0.60;99.90;;;;;;5078967;28;20283;-83
2023/12/17 01:26:51;;;;;;;4.73;3.00;;;0.60;99.90;;;;;;5078714;28;20205;-83
2023/12/17 01:29:17;;;;;;;7.53;3.40;;;0.60;99.90;;;;;;5076924;28;20571;-82
2023/12/17 01:31:45;;;;;;;4.40;3.27;;;0.80;99.90;;;;;;5085678;28;20288;-83
2023/12/17 01:34:11;;;;;;;4.23;3.40;;;0.90;99.90;;;;;;5079536;28;20288;-82
2023/12/17 01:36:41;;;;;;;3.57;2.90;;;0.80;99.90;;;;;;5078604;28;20197;-82
2023/12/17 01:39:09;;;;;;;3.70;3.00;;;0.80;99.90;;;;;;5078568;28;20192;-82
2023/12/17 01:41:36;;;;;;;4.73;3.00;;;0.90;99.90;;;;;;5076090;28;20225;-81
2023/12/17 01:44:03;;;;;;;3.83;2.90;;;1.10;99.90;;;;;;5083576;28;20208;-81
2023/12/17 01:46:30;;;;;;;4.83;3.00;;;1.20;99.90;;;;;;5077219;28;20207;-81
2023/12/17 01:48:57;;;;;;;4.70;3.10;;;1.10;99.90;;;;;;5076383;28;20201;-81
2023/12/17 01:51:24;;;;;;;4.57;2.80;;;1.00;99.90;;;;;;5077299;28;20209;-83
2023/12/17 01:53:53;;;;;;;4.20;2.90;;;1.10;99.90;;;;;;5078507;28;20200;-82
2023/12/17 01:56:20;;;;;;;4.27;3.10;;;1.20;99.90;;;;;;5076181;28;20205;-82
2023/12/17 01:58:48;;;;;;;4.07;3.20;;;1.30;99.90;;;;;;5084150;28;20193;-82
2023/12/17 02:01:15;;;;;;;4.07;3.00;;;1.10;99.90;;;;;;5077110;28;20271;-82
2023/12/17 02:03:43;;;;;;;3.83;3.20;;;1.00;99.90;;;;;;5078761;28;21248;-84
2023/12/17 02:06:10;;;;;;;5.60;3.20;;;0.90;99.90;;;;;;5081467;28;20202;-82
2023/12/17 02:08:37;;;;;;;4.37;3.40;;;0.80;99.90;;;;;;5082427;28;20197;-82
2023/12/17 02:11:06;;;;;;;4.27;3.30;;;0.70;99.90;;;;;;5083110;28;20203;-82
2023/12/17 02:13:33;;;;;;;4.20;3.77;;;0.60;99.90;;;;;;5084388;28;20221;-82
2023/12/17 02:15:59;;;;;;;4.93;3.27;;;0.50;99.90;;;;;;5093334;28;20188;-82
2023/12/17 02:18:26;;;;;;;6.40;3.70;;;0.50;99.90;;;;;;5083901;28;20192;-82
2023/12/17 02:20:54;;;;;;;4.10;3.30;;;0.60;99.90;;;;;;5089381;28;20196;-82
2023/12/17 02:23:22;;;;;;;4.00;3.30;;;0.70;99.90;;;;;;5084035;28;20201;-82
2023/12/17 02:25:49;;;;;;;3.60;3.20;;;0.60;99.90;;;;;;5079839;28;20193;-82
2023/12/17 02:28:16;;;;;;;4.03;3.20;;;0.70;99.90;;;;;;5081556;28;20211;-83
2023/12/17 02:30:43;;;;;;;4.87;3.23;;;0.70;99.90;;;;;;5084250;28;20189;-82
2023/12/17 02:33:10;;;;;;;4.47;3.40;;;0.60;99.90;;;;;;5083503;28;20201;-83
2023/12/17 02:35:37;;;;;;;4.07;3.20;;;0.60;99.90;;;;;;5083846;28;20198;-82
2023/12/17 02:38:03;;;;;;;4.93;3.50;;;0.60;99.90;;;;;;5080645;28;20200;-82
2023/12/17 02:40:32;;;;;;;3.93;3.10;;;0.60;99.90;;;;;;5088125;28;20583;-82
2023/12/17 02:42:59;;;;;;;4.23;3.20;;;0.70;99.90;;;;;;5077988;28;20224;-82
2023/12/17 02:45:26;;;;;;;4.40;3.47;;;0.80;99.90;;;;;;5083822;28;20195;-82
2023/12/17 02:47:53;;;;;;;4.37;3.10;;;0.70;99.90;;;;;;5083466;28;20228;-82
2023/12/17 02:50:19;;;;;;;5.37;3.13;;;0.60;99.90;;;;;;5084691;28;20205;-82
2023/12/17 02:52:46;;;;;;;4.33;3.03;;;0.50;99.90;;;;;;5085327;28;20235;-82
2023/12/17 02:55:14;;;;;;;4.43;3.30;;;0.50;99.90;;;;;;5085261;28;20216;-82
2023/12/17 02:57:43;;;;;;;4.23;3.50;;;0.40;99.90;;;;;;5087383;28;20280;-82
2023/12/17 03:00:10;;;;;;;3.07;2.77;;;0.50;99.90;;;;;;5084997;28;20190;-83
2023/12/17 03:02:37;;;;;;;3.73;3.10;;;0.50;99.90;;;;;;5084901;28;20224;-82
2023/12/17 03:05:05;;;;;;;3.40;2.60;;;0.50;99.90;;;;;;5080460;28;20251;-82
2023/12/17 03:07:31;;;;;;;2.60;2.40;;;0.40;99.90;;;;;;5079639;28;20193;-84
2023/12/17 03:09:58;;;;;;;2.63;2.43;;;0.40;99.90;;;;;;5081952;28;20579;-82
2023/12/17 03:12:25;;;;;;;3.73;2.87;;;0.40;99.90;;;;;;5078435;28;20208;-82
2023/12/17 03:14:53;;;;;;;3.90;2.90;;;0.40;99.90;;;;;;5089200;28;20212;-83
2023/12/17 03:17:20;;;;;;;3.43;3.13;;;0.30;99.90;;;;;;5081275;28;20212;-83
2023/12/17 03:19:47;;;;;;;2.70;2.50;;;0.30;99.90;;;;;;5081936;28;20546;-81
2023/12/17 03:22:14;;;;;;;4.23;2.60;;;0.30;99.90;;;;;;5087664;28;20227;-82
2023/12/17 03:24:41;;;;;;;3.57;2.63;;;0.30;99.90;;;;;;5084810;28;20562;-81
2023/12/17 03:27:07;;;;;;;3.10;2.60;;;0.20;99.90;;;;;;5079462;28;20204;-82
2023/12/17 03:29:34;;;;;;;3.50;2.57;;;0.30;99.90;;;;;;5079070;28;20268;-81
2023/12/17 03:32:03;;;;;;;2.87;2.57;;;0.20;99.90;;;;;;5081353;28;20200;-82
2023/12/17 03:34:29;;;;;;;4.43;2.60;;;0.30;99.90;;;;;;5090497;28;20193;-82
2023/12/17 03:36:56;;;;;;;3.40;2.37;;;0.20;99.90;;;;;;5082061;28;20189;-81
2023/12/17 03:39:23;;;;;;;3.30;2.60;;;0.20;99.90;;;;;;5077583;28;20190;-82
2023/12/17 03:41:50;;;;;;;3.17;2.33;;;0.10;99.90;;;;;;5076333;28;20224;-82
2023/12/17 03:44:16;;;;;;;3.60;2.73;;;0.00;99.90;;;;;;5084235;28;20203;-81
2023/12/17 03:46:42;;;;;;;2.83;2.50;;;0.00;99.90;;;;;;5082779;28;20201;-82
2023/12/17 03:49:11;;;;;;;3.00;2.33;;;-0.10;99.90;;;;;;5076477;28;20197;-83
2023/12/17 03:51:37;;;;;;;3.33;2.57;;;0.10;99.90;;;;;;5082527;28;20200;-83
2023/12/17 03:54:04;;;;;;;2.90;2.13;;;0.30;99.90;;;;;;5078370;28;20200;-82
2023/12/17 03:56:31;;;;;;;3.37;2.43;;;0.40;99.90;;;;;;5080357;28;20208;-82
2023/12/17 03:58:58;;;;;;;2.20;1.93;;;0.30;99.90;;;;;;5082506;28;20193;-83
2023/12/17 04:01:25;;;;;;;5.07;2.33;;;0.20;99.90;;;;;;5076966;28;20204;-82
2023/12/17 04:03:51;;;;;;;2.47;1.97;;;0.10;99.90;;;;;;5077317;28;20197;-81
2023/12/17 04:06:19;;;;;;;3.03;2.20;;;0.20;99.90;;;;;;5072826;28;20645;-82
2023/12/17 04:08:46;;;;;;;2.20;2.00;;;0.30;99.90;;;;;;5083004;28;20226;-82
2023/12/17 04:11:13;;;;;;;3.30;2.10;;;0.30;99.90;;;;;;5083231;28;20533;-82
2023/12/17 04:13:40;;;;;;;2.57;2.03;;;0.30;99.90;;;;;;5075313;28;20217;-82
2023/12/17 04:16:07;;;;;;;2.43;2.10;;;0.30;99.90;;;;;;5086183;28;20207;-82
2023/12/17 04:18:34;;;;;;;2.90;2.23;;;0.30;99.90;;;;;;5080119;28;20197;-81
2023/12/17 04:21:01;;;;;;;2.30;2.10;;;0.30;99.90;;;;;;5079370;28;20212;-82
2023/12/17 04:23:29;;;;;;;2.50;2.10;;;0.10;99.90;;;;;;5077689;28;20224;-82
2023/12/17 04:25:56;;;;;;;2.60;2.33;;;0.10;99.90;;;;;;5083904;28;20201;-82
2023/12/17 04:28:23;;;;;;;2.47;2.10;;;0.10;99.90;;;;;;5082142;28;20219;-83
2023/12/17 04:30:50;;;;;;;2.33;2.03;;;0.10;99.90;;;;;;5080223;28;20204;-81
2023/12/17 04:33:16;;;;;;;2.53;2.30;;;0.40;99.90;;;;;;5081710;28;20203;-82
2023/12/17 04:35:43;;;;;;;2.67;2.03;;;0.30;99.90;;;;;;5074458;28;20193;-82
2023/12/17 04:38:10;;;;;;;2.13;1.90;;;0.20;99.90;;;;;;5078263;28;20209;-82
2023/12/17 04:40:39;;;;;;;2.37;2.10;;;0.40;99.90;;;;;;5080446;28;20646;-82
2023/12/17 04:43:05;;;;;;;3.33;2.30;;;0.40;99.90;;;;;;5086896;28;20257;-82
2023/12/17 04:45:32;;;;;;;2.67;2.30;;;0.40;99.90;;;;;;5076252;28;20205;-82
2023/12/17 04:47:59;;;;;;;2.40;2.10;;;0.20;99.90;;;;;;5087075;28;20195;-82
2023/12/17 04:50:26;;;;;;;3.00;2.30;;;0.20;99.90;;;;;;5080690;28;20207;-82
2023/12/17 04:52:53;;;;;;;3.17;2.23;;;0.10;99.90;;;;;;5083731;28;20196;-82
2023/12/17 04:55:20;;;;;;;2.57;2.13;;;0.00;99.90;;;;;;5084729;28;20832;-80
2023/12/17 04:57:48;;;;;;;2.20;2.00;;;-0.20;99.90;;;;;;5083247;28;20190;-82
2023/12/17 05:00:16;;;;;;;2.60;2.20;;;-0.20;99.90;;;;;;5077942;28;20197;-81
2023/12/17 05:02:42;;;;;;;3.63;3.17;;;-0.20;99.90;;;;;;5073387;28;20213;-81
2023/12/17 05:05:09;;;;;;;2.10;1.90;;;-0.20;99.90;;;;;;5075025;28;20204;-81
2023/12/17 05:07:36;;;;;;;2.17;1.80;;;-0.20;99.90;;;;;;5082400;28;20204;-82
2023/12/17 05:10:03;;;;;;;2.40;2.10;;;-0.20;99.90;;;;;;5076598;28;20198;-81
2023/12/17 05:12:30;;;;;;;2.77;2.10;;;-0.10;99.90;;;;;;5085802;28;20707;-81
2023/12/17 05:14:58;;;;;;;2.20;2.00;;;0.00;99.90;;;;;;5081567;28;20225;-82
2023/12/17 05:17:25;;;;;;;2.03;1.80;;;0.10;99.90;;;;;;5088591;28;20196;-81
2023/12/17 05:19:52;;;;;;;2.80;1.80;;;0.20;99.90;;;;;;5081389;28;20223;-81
2023/12/17 05:22:18;;;;;;;2.67;1.97;;;0.30;99.90;;;;;;5078153;28;20688;-82
2023/12/17 05:24:45;;;;;;;2.17;1.97;;;0.20;99.90;;;;;;5083817;28;20194;-81
2023/12/17 05:27:12;;;;;;;2.30;1.93;;;0.20;99.90;;;;;;5081023;28;20193;-82
2023/12/17 05:29:39;;;;;;;3.07;2.20;;;0.00;99.90;;;;;;5085338;28;20644;-81
2023/12/17 05:32:08;;;;;;;2.20;1.90;;;0.00;99.90;;;;;;5083118;28;20204;-82
2023/12/17 05:34:34;;;;;;;3.13;2.00;;;0.00;99.90;;;;;;5075706;28;20199;-81
2023/12/17 05:37:01;;;;;;;2.20;1.83;;;-0.10;99.90;;;;;;5086412;28;20200;-82
2023/12/17 05:39:28;;;;;;;2.67;2.00;;;-0.10;99.90;;;;;;5085322;28;20194;-81
2023/12/17 05:41:55;;;;;;;5.80;1.87;;;-0.20;99.90;;;;;;5091274;28;20196;-81
2023/12/17 05:44:22;;;;;;;2.33;2.03;;;-0.20;99.90;;;;;;5083205;28;21544;-82
2023/12/17 05:46:49;;;;;;;1.80;1.70;;;-0.10;99.90;;;;;;5085365;28;20653;-82
2023/12/17 05:49:17;;;;;;;1.87;1.73;;;0.10;99.90;;;;;;5087467;28;20204;-81
2023/12/17 05:51:44;;;;;;;2.20;1.90;;;0.20;99.90;;;;;;5082498;28;20204;-82
2023/12/17 05:54:11;;;;;;;1.83;1.73;;;0.30;99.90;;;;;;5080491;28;20288;-84
2023/12/17 05:56:42;;;;;;;1.93;1.67;;;0.40;99.90;;;;;;5086361;28;20196;-81
2023/12/17 05:59:09;;;;;;;2.20;1.87;;;0.50;99.90;;;;;;5085051;28;20193;-82
2023/12/17 06:01:36;;;;;;;2.37;1.80;;;0.50;99.90;;;;;;5082649;28;20197;-81
2023/12/17 06:04:03;;;;;;;2.03;1.83;;;0.40;99.90;;;;;;5084521;28;20972;-83
2023/12/17 06:06:31;;;;;;;2.23;1.90;;;0.30;99.90;;;;;;5079621;28;20209;-81
2023/12/17 06:08:58;;;;;;;2.10;1.77;;;0.00;99.90;;;;;;5095614;28;20192;-82
2023/12/17 06:11:25;;;;;;;3.30;2.00;;;-0.10;99.90;;;;;;5085359;28;20192;-81
2023/12/17 06:13:51;;;;;;;2.37;2.00;;;0.00;99.90;;;;;;5081666;28;20239;-81
2023/12/17 06:16:18;;;;;;;2.33;2.13;;;0.00;99.90;;;;;;5079326;28;20197;-81
2023/12/17 06:18:45;;;;;;;2.73;2.00;;;-0.10;99.90;;;;;;5086506;28;20201;-81
2023/12/17 06:21:22;;;;;;;2.57;1.93;;;-0.10;99.90;;;;;;5085540;28;20226;-84
2023/12/17 06:23:50;;;;;;;2.47;2.10;;;-0.20;99.90;;;;;;5088962;28;20220;-81
2023/12/17 06:26:19;;;;;;;2.53;2.33;;;-0.20;99.90;;;;;;5080843;28;20661;-82
2023/12/17 06:28:46;;;;;;;2.10;1.90;;;-0.20;99.90;;;;;;5078082;28;20288;-81
2023/12/17 06:31:12;;;;;;;2.73;1.83;;;-0.20;99.90;;;;;;5078747;28;20197;-83
2023/12/17 06:33:39;;;;;;;2.90;2.20;;;-0.30;99.90;;;;;;5084512;28;20200;-82
2023/12/17 06:36:07;;;;;;;2.63;2.20;;;-0.30;99.90;;;;;;5084401;28;20223;-82
2023/12/17 06:38:33;;;;;;;6.00;2.20;;;-0.30;99.90;;;;;;5079889;28;20216;-81
2023/12/17 06:41:02;;;;;;;3.53;2.60;;;-0.30;99.90;;;;;;5087011;28;20274;-83
2023/12/17 06:43:28;;;;;;;2.30;2.03;;;-0.40;99.90;;;;;;5078342;28;20225;-81
2023/12/17 06:45:55;;;;;;;2.90;2.20;;;-0.40;99.90;;;;;;5083122;28;20629;-82
2023/12/17 06:48:22;;;;;;;3.03;2.20;;;-0.30;99.90;;;;;;5073950;28;20558;-81
2023/12/17 06:50:49;;;;;;;3.23;2.20;;;-0.10;99.90;;;;;;5082896;28;20906;-81
2023/12/17 06:53:17;;;;;;;2.63;2.30;;;0.00;99.90;;;;;;5077260;28;20201;-81
2023/12/17 06:55:44;;;;;;;2.60;1.93;;;0.00;99.90;;;;;;5077027;28;20250;-83
2023/12/17 06:58:12;;;;;;;3.40;2.43;;;0.00;99.90;;;;;;5082912;28;20198;-82
2023/12/17 07:00:39;;;;;;;2.87;2.00;;;0.10;99.90;;;;;;5089780;28;20207;-82
2023/12/17 07:03:06;;;;;;;2.30;1.70;;;0.20;99.90;;;;;;5086692;28;20213;-82
2023/12/17 07:05:33;;;;;;;2.27;1.80;;;0.40;99.90;;;;;;5083185;28;20342;-81
2023/12/17 07:08:00;;;;;;;2.57;1.70;;;0.40;99.90;;;;;;5082136;28;20193;-82
2023/12/17 07:10:27;;;;;;;2.73;1.60;;;0.30;99.90;;;;;;5074473;28;20312;-81
2023/12/17 07:12:54;;;;;;;2.40;1.73;;;0.20;99.90;;;;;;5080526;28;20193;-82
2023/12/17 07:15:22;;;;;;;2.73;2.00;;;0.30;99.90;;;;;;5086103;28;20585;-82
2023/12/17 07:17:49;;;;;;;2.47;2.03;;;0.20;99.90;;;;;;5086097;28;20675;-82
2023/12/17 07:20:16;;;;;;;4.10;2.30;;;0.10;99.90;;;;;;5074601;28;20712;-82
2023/12/17 07:22:42;;;;;;;2.63;2.20;;;0.00;99.90;;;;;;5088817;28;20217;-81
2023/12/17 07:25:10;;;;;;;5.23;2.00;;;-0.10;99.90;;;;;;5076735;28;20562;-81
2023/12/17 07:27:36;;;;;;;2.33;1.90;;;-0.10;99.90;;;;;;5078073;28;20648;-82
2023/12/17 07:30:04;;;;;;;3.73;2.30;;;0.00;99.90;;;;;;5083156;28;20196;-81
2023/12/17 07:32:32;;;;;;;2.90;2.60;;;0.10;99.90;;;;;;5083441;28;20197;-82
2023/12/17 07:34:59;;;;;;;3.70;2.70;;;0.20;99.90;;;;;;5076377;28;20571;-81
2023/12/17 07:37:26;;;;;;;2.80;2.50;;;0.40;99.90;;;;;;5081327;28;20212;-81
2023/12/17 07:39:53;;;;;;;3.57;2.60;;;0.40;99.90;;;;;;5077987;28;20207;-81
2023/12/17 07:42:19;;;;;;;2.93;2.47;;;0.40;99.90;;;;;;5077843;28;20578;-80
2023/12/17 07:44:46;;;;;;;3.83;2.67;;;0.50;99.90;;;;;;5083333;28;20311;-81
2023/12/17 07:47:14;;;;;;;2.30;2.10;;;0.50;99.90;;;;;;5083896;28;20208;-81
2023/12/17 07:49:43;;;;;;;2.43;2.20;;;0.70;99.90;;;;;;5081891;28;20198;-81
2023/12/17 07:52:11;;;;;;;3.17;2.87;;;0.90;99.90;;;;;;5083935;28;20197;-81
2023/12/17 07:54:38;;;;;;;6.67;2.90;;;0.90;99.90;;;;;;5082344;28;20201;-80
2023/12/17 07:57:05;;;;;;;3.20;2.60;;;1.00;99.90;;;;;;5083869;28;20193;-80
2023/12/17 07:59:32;;;;;;;4.47;2.67;;;1.10;99.90;;;;;;5078685;28;20196;-83
2023/12/17 08:02:00;;;;;;;2.63;2.40;;;1.20;99.80;;;;;;5074632;28;20323;-82
2023/12/17 08:04:26;;;;;;;3.60;2.80;;;1.30;99.50;;;;;;5082866;28;20228;-83
2023/12/17 08:06:55;;;;;;;2.80;2.37;;;1.30;99.50;;;;;;5080560;28;20194;-82
2023/12/17 08:09:21;;;;;;;4.37;2.57;;;1.30;99.50;;;;;;5080802;28;20547;-81
2023/12/17 08:11:48;;;;;;;2.83;2.40;;;1.40;99.50;;;;;;5082921;28;20193;-82
2023/12/17 08:14:15;;;;;;;2.67;2.33;;;1.20;99.50;;;;;;5078017;28;20575;-83
2023/12/17 08:16:44;;;;;;;2.67;1.93;;;1.20;99.80;;;;;;5082909;28;20208;-82
2023/12/17 08:19:10;;;;;;;3.63;2.00;;;1.20;99.90;;;;;;5074640;28;20939;-83
2023/12/17 08:21:37;;;;;;;2.37;2.00;;;1.20;99.90;;;;;;5076645;28;20212;-83
2023/12/17 08:24:06;;;;;;;3.87;2.20;;;1.40;99.90;;;;;;5078025;28;20212;-83
2023/12/17 08:26:33;;;;;;;3.77;2.33;;;1.70;99.50;;;;;;5081147;28;20201;-82
2023/12/17 08:29:00;;;;;;;2.37;2.00;;;1.90;99.50;;;;;;5086831;28;20200;-82
2023/12/17 08:31:27;;;;;;;3.00;2.47;;;2.00;98.90;;;;;;5079813;28;20200;-82
2023/12/17 08:33:53;;;;;;;4.03;2.50;;;2.00;99.00;;;;;;5078707;28;20200;-83
2023/12/17 08:36:23;;;;;;;4.63;2.70;;;2.00;98.80;;;;;;5077538;28;20197;-82
2023/12/17 08:38:50;;;;;;;4.73;2.50;;;2.10;98.80;;;;;;5080976;28;20551;-82
2023/12/17 08:41:18;;;;;;;4.53;2.50;;;2.20;98.40;;;;;;5076621;28;20193;-82
2023/12/17 08:43:45;;;;;;;4.17;2.30;;;2.30;98.30;;;;;;5086214;28;20224;-85
2023/12/17 08:46:12;;;;;;;2.80;2.27;;;2.50;97.90;;;;;;5083865;28;20197;-84
2023/12/17 08:48:39;;;;;;;3.63;2.10;;;2.80;97.00;;;;;;5080669;28;20220;-84
2023/12/17 08:51:06;;;;;;;2.43;2.23;;;2.90;96.70;;;;;;5078463;28;20577;-85
2023/12/17 08:53:33;;;;;;;3.33;2.40;;;3.20;96.40;;;;;;5078570;28;20862;-86
2023/12/17 08:56:02;;;;;;;4.87;2.27;;;3.60;96.00;;;;;;5080576;28;20193;-86
2023/12/17 08:58:31;;;;;;;3.37;2.27;;;3.80;94.80;;;;;;5087380;28;20208;-86
2023/12/17 09:00:57;;;;;;;3.03;1.80;;;4.00;94.90;;;;;;5076346;28;20201;-86
2023/12/17 09:03:24;;;;;;;2.00;1.80;;;4.00;94.90;;;;;;5080070;28;20614;-85
2023/12/17 09:05:51;;;;;;;4.13;2.10;;;4.00;93.60;;;;;;5080211;28;20283;-84
2023/12/17 09:08:18;;;;;;;5.17;2.63;;;4.10;93.90;;;;;;5080751;28;20196;-85
2023/12/17 09:10:45;;;;;;;1.98;1.75;;;4.30;93.60;;;;;;5085345;28;20192;-86
2023/12/17 09:13:12;;;;;;;2.60;2.03;;;4.80;92.40;;;;;;5075727;28;20189;-86
2023/12/17 09:15:41;;;;;;;2.15;1.50;;;5.40;90.70;;;;;;5083727;28;20192;-86
2023/12/17 09:18:07;;;;;;;2.10;1.90;;;5.80;89.50;;;;;;5081376;28;20200;-86
2023/12/17 09:20:34;;;;;;;1.92;1.60;;;5.90;89.50;;;;;;5087483;28;20203;-85
2023/12/17 09:23:02;;;;;;;2.10;1.90;;;5.90;89.50;;;;;;5083018;28;20208;-85
2023/12/17 09:25:29;;;;;;;1.85;1.65;;;6.00;87.20;;;;;;5071018;28;20852;-86
2023/12/17 09:27:56;;;;;;;2.00;1.80;;;6.40;84.30;;;;;;5071366;28;20283;-85
2023/12/17 09:30:37;;;;;;;1.90;1.70;;;6.10;85.40;;;;;;5087181;28;20263;-85
2023/12/17 09:33:06;;;;;;;2.25;2.00;;;6.20;86.00;;;;;;5080246;28;20657;-86
2023/12/17 09:35:36;;;;;;;2.15;1.90;;;6.50;83.20;;;;;;5084406;28;20193;-85
2023/12/17 09:38:06;;;;;;;2.03;1.80;;;6.50;79.30;;;;;;5078453;28;20615;-85
2023/12/17 09:40:33;;;;;;;2.30;2.05;;;6.60;77.90;;;;;;5081024;28;20193;-86
2023/12/17 09:43:01;;;;;;;3.03;2.40;;;7.10;77.70;;;;;;5086219;28;20204;-86
2023/12/17 09:45:28;;;;;;;2.05;1.90;;;7.70;57.60;;;;;;5080965;28;20235;-86
2023/12/17 09:47:55;;;;;;;3.15;1.75;;;7.50;65.00;;;;;;5083217;28;20193;-86
2023/12/17 09:50:27;;;;;;;2.30;2.10;;;7.50;61.90;;;;;;5084047;28;20204;-86
2023/12/17 09:52:54;;;;;;;2.33;2.10;;;6.90;62.00;;;;;;5080510;28;20193;-86
2023/12/17 09:55:21;;;;;;;3.30;2.22;;;6.70;70.20;;;;;;5079280;28;20205;-86
2023/12/17 09:57:48;;;;;;;2.00;1.90;;;6.70;75.40;;;;;;5082483;28;20201;-86
2023/12/17 10:00:19;;;;;;;2.10;1.90;;;6.90;77.50;;;;;;5071858;28;20209;-85
2023/12/17 10:02:46;;;;;;;3.00;2.10;;;7.20;71.40;;;;;;5087295;28;20224;-85
2023/12/17 10:05:15;;;;;;;3.10;2.33;;;7.30;66.60;;;;;;5083686;28;20220;-86
2023/12/17 10:07:43;;;;;;;4.38;2.22;;;7.20;72.10;;;;;;5083638;28;20192;-85
2023/12/17 10:10:10;;;;;;;2.67;2.03;;;6.90;78.90;;;;;;5085596;28;20201;-85
2023/12/17 10:12:38;;;;;;;2.15;1.73;;;6.70;81.00;;;;;;5087105;28;20228;-85
2023/12/17 10:15:06;;;;;;;2.58;2.10;;;6.50;80.90;;;;;;5076515;28;20255;-85
2023/12/17 10:17:33;;;;;;;2.67;1.90;;;6.40;80.10;;;;;;5083495;28;20204;-85
2023/12/17 10:20:00;;;;;;;4.00;2.15;;;6.60;81.50;;;;;;5084815;28;20203;-86
2023/12/17 10:22:27;;;;;;;2.45;2.10;;;6.80;80.20;;;;;;5093474;28;20200;-85
2023/12/17 10:24:56;;;;;;;2.30;2.00;;;7.00;77.10;;;;;;5086935;28;20216;-85
2023/12/17 10:27:28;;;;;;;3.50;2.00;;;7.30;74.30;;;;;;5083310;28;20196;-85
2023/12/17 10:29:58;;;;;;;3.30;2.08;;;7.30;74.00;;;;;;5092365;28;20275;-86
2023/12/17 10:32:26;;;;;;;2.20;2.00;;;7.70;72.60;;;;;;5084865;28;20204;-85
2023/12/17 10:34:54;;;;;;;2.03;1.83;;;8.00;69.20;;;;;;5080606;28;20200;-85
2023/12/17 10:37:22;;;;;;;2.08;1.88;;;8.30;59.80;;;;;;5081088;28;20198;-85
2023/12/17 10:39:50;;;;;;;2.10;1.92;;;8.40;60.30;;;;;;5087846;28;20213;-85
2023/12/17 10:42:20;;;;;;;1.80;1.70;;;8.60;57.00;;;;;;5083422;28;20560;-86
2023/12/17 10:44:49;;;;;;;2.00;1.80;;;9.10;47.60;;;;;;5082146;28;20220;-85
2023/12/17 10:47:19;;;;;;;2.05;1.85;;;9.50;44.90;;;;;;5082824;28;20201;-85
2023/12/17 10:49:47;;;;;;;2.22;2.03;;;9.80;41.30;;;;;;5082957;28;20228;-85
2023/12/17 10:52:15;;;;;;;2.15;1.80;;;10.10;35.50;;;;;;5082208;28;20200;-86
2023/12/17 10:54:42;;;;;;;2.60;1.98;;;10.50;30.80;;;;;;5081377;28;20193;-87
2023/12/17 10:57:13;;;;;;;4.22;2.90;;;10.70;27.90;;;;;;5081769;28;20204;-85
2023/12/17 10:59:44;;;;;;;13.70;8.55;;;10.70;26.50;;;;;;5080807;28;20197;-86
2023/12/17 11:02:14;;;;;;;3.00;2.55;;;10.80;25.70;;;;;;5079359;28;20205;-86
2023/12/17 11:04:45;;;;;;;2.45;2.20;;;10.90;26.60;;;;;;5079828;28;20209;-86
2023/12/17 11:07:16;;;;;;;2.47;2.20;;;10.70;24.20;;;;;;5079814;28;20784;-85
2023/12/17 11:09:43;;;;;;;1.80;1.67;;;10.20;24.80;;;;;;5083354;28;20294;-85
2023/12/17 11:12:12;;;;;;;2.53;1.60;;;9.80;26.40;;;;;;5084525;28;20205;-85
2023/12/17 11:14:40;;;;;;;1.92;1.75;;;9.50;28.00;;;;;;5076629;28;20221;-86
2023/12/17 11:17:12;;;;;;;3.30;1.50;;;9.30;25.20;;;;;;5088564;28;20205;-85
2023/12/17 11:19:54;;;;;;;3.53;1.77;;;8.90;28.50;;;;;;5075188;28;20209;-84
2023/12/17 11:22:22;;;;;;;4.32;2.10;;;8.60;29.60;;;;;;5091692;28;20644;-84
2023/12/17 11:24:49;;;;;;;3.33;1.75;;;8.30;29.60;;;;;;5085248;28;20299;-85
2023/12/17 11:27:22;;;;;;;3.28;1.80;;;8.10;30.10;;;;;;5085661;28;20197;-88
2023/12/17 11:29:49;;;;;;;1.70;1.50;;;8.30;29.90;;;;;;5080026;28;20251;-85
2023/12/17 11:32:20;;;;;;;2.25;1.70;;;8.40;29.10;;;;;;5086842;28;20189;-84
2023/12/17 11:34:49;;;;;;;1.65;1.50;;;8.30;29.20;;;;;;5084520;28;20621;-84
2023/12/17 11:37:20;;;;;;;2.67;2.30;;;8.20;30.60;;;;;;5082449;28;20276;-84
2023/12/17 11:39:48;;;;;;;2.30;1.75;;;8.30;29.60;;;;;;5084557;28;20287;-85
2023/12/17 11:42:16;;;;;;;3.40;2.65;;;8.30;31.40;;;;;;5083485;28;20197;-84
2023/12/17 11:44:46;;;;;;;4.75;1.70;;;8.30;32.00;;;;;;5084476;28;20215;-84
2023/12/17 11:47:14;;;;;;;2.55;1.90;;;8.30;32.10;;;;;;5082609;28;20218;-85
2023/12/17 11:49:42;;;;;;;3.78;2.85;;;8.20;33.60;;;;;;5080838;28;20219;-85
2023/12/17 11:52:15;;;;;;;2.47;1.50;;;8.20;31.50;;;;;;5077926;28;20197;-85
2023/12/17 11:54:43;;;;;;;2.83;2.20;;;8.20;31.60;;;;;;5082387;28;20192;-84
2023/12/17 11:57:23;;;;;;;2.25;1.85;;;8.00;31.30;;;;;;5083023;28;20193;-85
2023/12/17 11:59:50;;;;;;;4.70;2.92;;;8.00;32.70;;;;;;5078408;28;20196;-85
2023/12/17 12:02:18;;;;;;;5.57;2.55;;;8.00;33.50;;;;;;5082781;28;20197;-86
2023/12/17 12:04:47;;;;;;;2.70;1.60;;;8.10;32.10;;;;;;5075522;28;20227;-83
2023/12/17 12:07:18;;;;;;;2.28;1.60;;;8.20;33.10;;;;;;5086759;28;20208;-82
2023/12/17 12:09:45;;;;;;;1.65;1.50;;;8.20;31.10;;;;;;5078202;28;20268;-83
2023/12/17 12:12:19;;;;;;;2.08;1.67;;;8.30;30.50;;;;;;5080933;28;20197;-81
2023/12/17 12:14:48;;;;;;;1.50;1.30;;;8.30;29.80;;;;;;5089777;28;20586;-81
2023/12/17 12:17:37;;;;;;;2.42;1.67;;;8.30;28.70;;;;;;5080860;28;20201;-81
2023/12/17 12:20:07;;;;;;;9.95;5.43;;;8.30;28.00;;;;;;5083628;28;20249;-87
2023/12/17 12:22:34;;;;;;;2.67;2.35;;;8.30;29.00;;;;;;5087260;28;20276;-83
2023/12/17 12:25:01;;;;;;;2.03;1.70;;;8.20;26.90;;;;;;5080924;28;20216;-86
2023/12/17 12:27:28;;;;;;;2.70;2.08;;;8.30;27.20;;;;;;5079226;28;20221;-87
2023/12/17 12:29:55;;;;;;;5.43;1.42;;;8.30;25.10;;;;;;5077214;28;20208;-85
2023/12/17 12:32:30;;;;;;;3.83;2.65;;;8.30;23.80;;;;;;5082322;28;20208;-85
2023/12/17 12:34:57;;;;;;;1.73;1.52;;;8.30;23.80;;;;;;5087231;28;20200;-84
2023/12/17 12:37:36;;;;;;;1.70;1.58;;;8.20;25.10;;;;;;5075041;28;20562;-85
2023/12/17 12:40:04;;;;;;;3.13;1.50;;;8.30;25.20;;;;;;5077801;28;20204;-85
2023/12/17 12:42:31;;;;;;;2.33;1.80;;;8.20;26.70;;;;;;5081721;28;20193;-87
2023/12/17 12:44:58;;;;;;;2.08;1.50;;;8.20;27.50;;;;;;5075848;28;20223;-86
2023/12/17 12:47:26;;;;;;;2.20;1.80;;;8.30;28.10;;;;;;5075412;28;20208;-87
2023/12/17 12:49:53;;;;;;;4.30;1.63;;;8.20;29.40;;;;;;5075227;28;20220;-87
2023/12/17 12:52:22;;;;;;;1.70;1.50;;;8.20;29.20;;;;;;5077796;28;20188;-87
2023/12/17 12:54:51;;;;;;;1.83;1.50;;;8.20;28.90;;;;;;5075223;28;20205;-87
2023/12/17 12:57:19;;;;;;;2.05;1.60;;;8.30;28.50;;;;;;5073492;28;20243;-86